sensor_id;sensor_type;location;lat;lon;timestamp;temperature;humidity
4896;DHT22;2463;49.948;8.472;2023-04-25T00:02:17;9.70;99.90
4896;DHT22;2463;49.948;8.472;2023-04-25T00:04:44;9.70;99.90
4896;DHT22;2463;49.948;8.472;2023-04-25T00:07:11;9.70;99.90
4896;DHT22;2463;49.948;8.472;2023-04-25T00:09:39;9.70;99.90
4896;DHT22;2463;49.948;8.472;2023-04-25T00:12:05;9.70;99.90
4896;DHT22;2463;49.948;8.472;2023-04-25T00:14:32;9.70;99.90
4896;DHT22;2463;49.948;8.472;2023-04-25T00:17:02;9.70;99.90
4896;DHT22;2463;49.948;8.472;2023-04-25T00:19:29;9.70;99.90
4896;DHT22;2463;49.948;8.472;2023-04-25T00:21:56;9.70;99.90
4896;DHT22;2463;49.948;8.472;2023-04-25T00:24:22;9.70;99.90
4896;DHT22;2463;49.948;8.472;2023-04-25T00:26:49;9.70;99.90
4896;DHT22;2463;49.948;8.472;2023-04-25T00:29:16;9.60;99.90
4896;DHT22;2463;49.948;8.472;2023-04-25T00:31:42;9.70;99.90
4896;DHT22;2463;49.948;8.472;2023-04-25T00:34:09;9.70;99.90
4896;DHT22;2463;49.948;8.472;2023-04-25T00:36:37;9.70;99.90
4896;DHT22;2463;49.948;8.472;2023-04-25T00:39:04;9.70;99.90
4896;DHT22;2463;49.948;8.472;2023-04-25T00:41:31;9.70;99.90
4896;DHT22;2463;49.948;8.472;2023-04-25T00:43:58;9.70;99.90
4896;DHT22;2463;49.948;8.472;2023-04-25T00:46:25;9.70;99.90
4896;DHT22;2463;49.948;8.472;2023-04-25T00:48:52;9.70;99.90
4896;DHT22;2463;49.948;8.472;2023-04-25T00:51:22;9.70;99.90
4896;DHT22;2463;49.948;8.472;2023-04-25T00:53:49;9.80;99.90
4896;DHT22;2463;49.948;8.472;2023-04-25T00:56:17;9.80;99.90
4896;DHT22;2463;49.948;8.472;2023-04-25T00:58:44;9.80;99.90
4896;DHT22;2463;49.948;8.472;2023-04-25T01:01:12;9.80;99.90
4896;DHT22;2463;49.948;8.472;2023-04-25T01:03:40;9.90;99.90
4896;DHT22;2463;49.948;8.472;2023-04-25T01:06:09;9.90;99.90
4896;DHT22;2463;49.948;8.472;2023-04-25T01:08:37;9.90;99.90
4896;DHT22;2463;49.948;8.472;2023-04-25T01:11:05;9.90;99.90
4896;DHT22;2463;49.948;8.472;2023-04-25T01:13:32;9.80;99.90
4896;DHT22;2463;49.948;8.472;2023-04-25T01:16:01;9.80;99.90
4896;DHT22;2463;49.948;8.472;2023-04-25T01:18:28;9.90;99.90
4896;DHT22;2463;49.948;8.472;2023-04-25T01:20:55;9.90;99.90
4896;DHT22;2463;49.948;8.472;2023-04-25T01:23:22;9.90;99.90
4896;DHT22;2463;49.948;8.472;2023-04-25T01:25:49;9.90;99.90
4896;DHT22;2463;49.948;8.472;2023-04-25T01:28:17;9.90;99.90
4896;DHT22;2463;49.948;8.472;2023-04-25T01:30:44;9.90;99.90
4896;DHT22;2463;49.948;8.472;2023-04-25T01:33:13;9.90;99.90
4896;DHT22;2463;49.948;8.472;2023-04-25T01:35:40;9.90;99.90
4896;DHT22;2463;49.948;8.472;2023-04-25T01:38:07;10.00;99.90
4896;DHT22;2463;49.948;8.472;2023-04-25T01:40:34;10.00;99.90
4896;DHT22;2463;49.948;8.472;2023-04-25T01:43:02;10.00;99.90
4896;DHT22;2463;49.948;8.472;2023-04-25T01:45:29;10.00;99.90
4896;DHT22;2463;49.948;8.472;2023-04-25T01:47:56;10.00;99.90
4896;DHT22;2463;49.948;8.472;2023-04-25T01:50:25;10.00;99.90
4896;DHT22;2463;49.948;8.472;2023-04-25T01:52:53;10.00;99.90
4896;DHT22;2463;49.948;8.472;2023-04-25T01:55:20;10.00;99.90
4896;DHT22;2463;49.948;8.472;2023-04-25T01:57:46;10.00;99.90
4896;DHT22;2463;49.948;8.472;2023-04-25T02:00:13;10.00;99.90
4896;DHT22;2463;49.948;8.472;2023-04-25T02:02:40;10.00;99.90
4896;DHT22;2463;49.948;8.472;2023-04-25T02:05:07;10.00;99.90
4896;DHT22;2463;49.948;8.472;2023-04-25T02:07:34;10.00;99.90
4896;DHT22;2463;49.948;8.472;2023-04-25T02:10:01;10.00;99.90
4896;DHT22;2463;49.948;8.472;2023-04-25T02:12:28;10.00;99.90
4896;DHT22;2463;49.948;8.472;2023-04-25T02:14:54;10.00;99.90
4896;DHT22;2463;49.948;8.472;2023-04-25T02:17:21;10.00;99.90
4896;DHT22;2463;49.948;8.472;2023-04-25T02:19:48;10.00;99.90
4896;DHT22;2463;49.948;8.472;2023-04-25T02:22:15;10.00;99.90
4896;DHT22;2463;49.948;8.472;2023-04-25T02:24:41;10.00;99.90
4896;DHT22;2463;49.948;8.472;2023-04-25T02:27:08;10.00;99.90
4896;DHT22;2463;49.948;8.472;2023-04-25T02:29:34;10.00;99.90
4896;DHT22;2463;49.948;8.472;2023-04-25T02:32:01;10.00;99.90
4896;DHT22;2463;49.948;8.472;2023-04-25T02:34:28;10.00;99.90
4896;DHT22;2463;49.948;8.472;2023-04-25T02:36:55;10.00;99.90
4896;DHT22;2463;49.948;8.472;2023-04-25T02:39:21;10.00;99.90
4896;DHT22;2463;49.948;8.472;2023-04-25T02:41:48;9.90;99.90
4896;DHT22;2463;49.948;8.472;2023-04-25T02:44:15;9.90;99.90
4896;DHT22;2463;49.948;8.472;2023-04-25T02:46:41;9.90;99.90
4896;DHT22;2463;49.948;8.472;2023-04-25T02:49:08;9.90;99.90
4896;DHT22;2463;49.948;8.472;2023-04-25T02:51:35;9.80;99.90
4896;DHT22;2463;49.948;8.472;2023-04-25T02:54:01;9.70;99.90
4896;DHT22;2463;49.948;8.472;2023-04-25T02:56:28;9.60;99.90
4896;DHT22;2463;49.948;8.472;2023-04-25T02:58:55;9.50;99.90
4896;DHT22;2463;49.948;8.472;2023-04-25T03:01:21;9.50;99.90
4896;DHT22;2463;49.948;8.472;2023-04-25T03:03:48;9.40;99.90
4896;DHT22;2463;49.948;8.472;2023-04-25T03:06:15;9.40;99.90
4896;DHT22;2463;49.948;8.472;2023-04-25T03:08:42;9.40;99.90
4896;DHT22;2463;49.948;8.472;2023-04-25T03:11:09;9.50;99.90
4896;DHT22;2463;49.948;8.472;2023-04-25T03:13:36;9.50;99.90
4896;DHT22;2463;49.948;8.472;2023-04-25T03:16:03;9.50;99.90
4896;DHT22;2463;49.948;8.472;2023-04-25T03:18:30;9.60;99.90
4896;DHT22;2463;49.948;8.472;2023-04-25T03:20:57;9.60;99.90
4896;DHT22;2463;49.948;8.472;2023-04-25T03:23:24;9.60;99.90
4896;DHT22;2463;49.948;8.472;2023-04-25T03:25:51;9.60;99.90
4896;DHT22;2463;49.948;8.472;2023-04-25T03:28:17;9.50;99.90
4896;DHT22;2463;49.948;8.472;2023-04-25T03:30:44;9.50;99.90
4896;DHT22;2463;49.948;8.472;2023-04-25T03:33:11;9.50;99.90
4896;DHT22;2463;49.948;8.472;2023-04-25T03:35:37;9.50;99.90
4896;DHT22;2463;49.948;8.472;2023-04-25T03:38:04;9.50;99.90
4896;DHT22;2463;49.948;8.472;2023-04-25T03:40:31;9.50;99.90
4896;DHT22;2463;49.948;8.472;2023-04-25T03:42:57;9.50;99.90
4896;DHT22;2463;49.948;8.472;2023-04-25T03:45:24;9.50;99.90
4896;DHT22;2463;49.948;8.472;2023-04-25T03:47:51;9.50;99.90
4896;DHT22;2463;49.948;8.472;2023-04-25T03:50:17;9.50;99.90
4896;DHT22;2463;49.948;8.472;2023-04-25T03:52:44;9.40;99.90
4896;DHT22;2463;49.948;8.472;2023-04-25T03:55:11;9.30;99.90
4896;DHT22;2463;49.948;8.472;2023-04-25T03:57:37;9.40;99.90
4896;DHT22;2463;49.948;8.472;2023-04-25T04:00:05;9.40;99.90
4896;DHT22;2463;49.948;8.472;2023-04-25T04:02:33;9.40;99.90
4896;DHT22;2463;49.948;8.472;2023-04-25T04:05:01;9.40;99.90
4896;DHT22;2463;49.948;8.472;2023-04-25T04:07:29;9.40;99.90
4896;DHT22;2463;49.948;8.472;2023-04-25T04:09:56;9.40;99.90
4896;DHT22;2463;49.948;8.472;2023-04-25T04:12:22;9.40;99.90
4896;DHT22;2463;49.948;8.472;2023-04-25T04:14:49;9.40;99.90
4896;DHT22;2463;49.948;8.472;2023-04-25T04:17:16;9.40;99.90
4896;DHT22;2463;49.948;8.472;2023-04-25T04:19:42;9.40;99.90
4896;DHT22;2463;49.948;8.472;2023-04-25T04:22:09;9.40;99.90
4896;DHT22;2463;49.948;8.472;2023-04-25T04:24:36;9.40;99.90
4896;DHT22;2463;49.948;8.472;2023-04-25T04:27:03;9.40;99.90
4896;DHT22;2463;49.948;8.472;2023-04-25T04:29:30;9.40;99.90
4896;DHT22;2463;49.948;8.472;2023-04-25T04:31:57;9.50;99.90
4896;DHT22;2463;49.948;8.472;2023-04-25T04:34:24;9.50;99.90
4896;DHT22;2463;49.948;8.472;2023-04-25T04:36:52;9.40;99.90
4896;DHT22;2463;49.948;8.472;2023-04-25T04:39:18;9.40;99.90
4896;DHT22;2463;49.948;8.472;2023-04-25T04:41:45;9.40;99.90
4896;DHT22;2463;49.948;8.472;2023-04-25T04:44:12;9.30;99.90
4896;DHT22;2463;49.948;8.472;2023-04-25T04:46:38;9.30;99.90
4896;DHT22;2463;49.948;8.472;2023-04-25T04:49:09;9.20;99.90
4896;DHT22;2463;49.948;8.472;2023-04-25T04:51:37;9.20;99.90
4896;DHT22;2463;49.948;8.472;2023-04-25T04:54:04;9.10;99.90
4896;DHT22;2463;49.948;8.472;2023-04-25T04:56:31;9.00;99.90
4896;DHT22;2463;49.948;8.472;2023-04-25T04:58:58;9.00;99.90
4896;DHT22;2463;49.948;8.472;2023-04-25T05:01:26;9.00;99.90
4896;DHT22;2463;49.948;8.472;2023-04-25T05:03:53;8.90;99.90
4896;DHT22;2463;49.948;8.472;2023-04-25T05:06:20;8.90;99.90
4896;DHT22;2463;49.948;8.472;2023-04-25T05:08:47;8.90;99.90
4896;DHT22;2463;49.948;8.472;2023-04-25T05:11:14;8.90;99.90
4896;DHT22;2463;49.948;8.472;2023-04-25T05:13:40;8.90;99.90
4896;DHT22;2463;49.948;8.472;2023-04-25T05:16:07;8.90;99.90
4896;DHT22;2463;49.948;8.472;2023-04-25T05:18:34;8.80;99.90
4896;DHT22;2463;49.948;8.472;2023-04-25T05:21:01;8.90;99.90
4896;DHT22;2463;49.948;8.472;2023-04-25T05:23:28;8.90;99.90
4896;DHT22;2463;49.948;8.472;2023-04-25T05:25:59;8.80;99.90
4896;DHT22;2463;49.948;8.472;2023-04-25T05:28:25;8.80;99.90
4896;DHT22;2463;49.948;8.472;2023-04-25T05:30:52;8.90;99.90
4896;DHT22;2463;49.948;8.472;2023-04-25T05:33:19;8.90;99.90
4896;DHT22;2463;49.948;8.472;2023-04-25T05:35:46;8.90;99.90
4896;DHT22;2463;49.948;8.472;2023-04-25T05:38:13;9.00;99.90
4896;DHT22;2463;49.948;8.472;2023-04-25T05:40:39;9.00;99.90
4896;DHT22;2463;49.948;8.472;2023-04-25T05:43:06;9.10;99.90
4896;DHT22;2463;49.948;8.472;2023-04-25T05:45:33;9.30;99.90
4896;DHT22;2463;49.948;8.472;2023-04-25T05:48:00;9.40;99.90
4896;DHT22;2463;49.948;8.472;2023-04-25T05:50:27;9.40;99.90
4896;DHT22;2463;49.948;8.472;2023-04-25T05:52:53;9.50;99.90
4896;DHT22;2463;49.948;8.472;2023-04-25T05:55:20;9.60;99.90
4896;DHT22;2463;49.948;8.472;2023-04-25T05:57:47;9.60;99.90
4896;DHT22;2463;49.948;8.472;2023-04-25T06:00:16;9.70;99.90
4896;DHT22;2463;49.948;8.472;2023-04-25T06:02:43;9.70;99.90
4896;DHT22;2463;49.948;8.472;2023-04-25T06:05:10;9.80;99.90
4896;DHT22;2463;49.948;8.472;2023-04-25T06:07:37;9.90;99.90
4896;DHT22;2463;49.948;8.472;2023-04-25T06:10:04;10.00;99.90
4896;DHT22;2463;49.948;8.472;2023-04-25T06:12:33;10.10;99.90
4896;DHT22;2463;49.948;8.472;2023-04-25T06:15:00;10.20;99.90
4896;DHT22;2463;49.948;8.472;2023-04-25T06:17:28;10.30;99.90
4896;DHT22;2463;49.948;8.472;2023-04-25T06:19:54;10.20;99.90
4896;DHT22;2463;49.948;8.472;2023-04-25T06:22:21;10.30;99.90
4896;DHT22;2463;49.948;8.472;2023-04-25T06:24:48;10.40;99.90
4896;DHT22;2463;49.948;8.472;2023-04-25T06:27:14;10.50;99.90
4896;DHT22;2463;49.948;8.472;2023-04-25T06:29:42;10.40;99.90
4896;DHT22;2463;49.948;8.472;2023-04-25T06:32:09;10.40;99.90
4896;DHT22;2463;49.948;8.472;2023-04-25T06:34:36;10.50;99.90
4896;DHT22;2463;49.948;8.472;2023-04-25T06:37:02;10.60;99.90
4896;DHT22;2463;49.948;8.472;2023-04-25T06:39:29;10.80;99.90
4896;DHT22;2463;49.948;8.472;2023-04-25T06:41:55;10.90;99.90
4896;DHT22;2463;49.948;8.472;2023-04-25T06:44:22;11.10;99.90
4896;DHT22;2463;49.948;8.472;2023-04-25T06:46:50;11.20;99.90
4896;DHT22;2463;49.948;8.472;2023-04-25T06:49:17;11.70;99.90
4896;DHT22;2463;49.948;8.472;2023-04-25T06:51:44;12.40;99.90
4896;DHT22;2463;49.948;8.472;2023-04-25T06:54:10;13.60;99.90
4896;DHT22;2463;49.948;8.472;2023-04-25T06:56:37;15.40;99.90
4896;DHT22;2463;49.948;8.472;2023-04-25T06:59:04;17.10;99.90
4896;DHT22;2463;49.948;8.472;2023-04-25T07:01:31;18.10;99.90
4896;DHT22;2463;49.948;8.472;2023-04-25T07:03:57;18.90;99.90
4896;DHT22;2463;49.948;8.472;2023-04-25T07:06:24;19.30;99.90
4896;DHT22;2463;49.948;8.472;2023-04-25T07:08:52;18.80;99.90
4896;DHT22;2463;49.948;8.472;2023-04-25T07:11:19;18.80;99.90
4896;DHT22;2463;49.948;8.472;2023-04-25T07:13:46;18.60;99.90
4896;DHT22;2463;49.948;8.472;2023-04-25T07:16:12;18.70;99.90
4896;DHT22;2463;49.948;8.472;2023-04-25T07:18:39;18.60;99.90
4896;DHT22;2463;49.948;8.472;2023-04-25T07:21:06;18.10;99.90
4896;DHT22;2463;49.948;8.472;2023-04-25T07:23:32;17.80;99.90
4896;DHT22;2463;49.948;8.472;2023-04-25T07:25:59;17.30;99.90
4896;DHT22;2463;49.948;8.472;2023-04-25T07:28:26;16.90;99.90
4896;DHT22;2463;49.948;8.472;2023-04-25T07:30:52;16.60;99.90
4896;DHT22;2463;49.948;8.472;2023-04-25T07:33:19;16.50;99.90
4896;DHT22;2463;49.948;8.472;2023-04-25T07:35:47;16.60;99.90
4896;DHT22;2463;49.948;8.472;2023-04-25T07:38:13;16.70;99.90
4896;DHT22;2463;49.948;8.472;2023-04-25T07:40:40;16.90;99.90
4896;DHT22;2463;49.948;8.472;2023-04-25T07:43:07;17.30;99.90
4896;DHT22;2463;49.948;8.472;2023-04-25T07:45:33;17.60;99.90
4896;DHT22;2463;49.948;8.472;2023-04-25T07:48:00;17.80;99.90
4896;DHT22;2463;49.948;8.472;2023-04-25T07:50:27;17.90;99.90
4896;DHT22;2463;49.948;8.472;2023-04-25T07:52:54;18.00;99.90
4896;DHT22;2463;49.948;8.472;2023-04-25T07:55:20;18.20;99.90
4896;DHT22;2463;49.948;8.472;2023-04-25T07:57:47;18.30;99.90
4896;DHT22;2463;49.948;8.472;2023-04-25T08:00:14;18.40;99.90
4896;DHT22;2463;49.948;8.472;2023-04-25T08:02:41;18.50;99.90
4896;DHT22;2463;49.948;8.472;2023-04-25T08:05:08;18.60;99.90
4896;DHT22;2463;49.948;8.472;2023-04-25T08:07:38;18.60;99.90
4896;DHT22;2463;49.948;8.472;2023-04-25T08:10:06;18.50;99.90
4896;DHT22;2463;49.948;8.472;2023-04-25T08:12:33;18.60;99.90
4896;DHT22;2463;49.948;8.472;2023-04-25T08:15:00;18.80;99.90
4896;DHT22;2463;49.948;8.472;2023-04-25T08:17:26;19.00;99.90
4896;DHT22;2463;49.948;8.472;2023-04-25T08:19:53;19.10;99.90
4896;DHT22;2463;49.948;8.472;2023-04-25T08:22:20;19.20;99.60
4896;DHT22;2463;49.948;8.472;2023-04-25T08:24:47;19.30;99.90
4896;DHT22;2463;49.948;8.472;2023-04-25T08:27:13;19.10;99.60
4896;DHT22;2463;49.948;8.472;2023-04-25T08:29:41;19.00;99.90
4896;DHT22;2463;49.948;8.472;2023-04-25T08:32:08;18.90;99.70
4896;DHT22;2463;49.948;8.472;2023-04-25T08:34:35;18.80;99.90
4896;DHT22;2463;49.948;8.472;2023-04-25T08:37:03;18.70;99.70
4896;DHT22;2463;49.948;8.472;2023-04-25T08:39:30;19.00;99.80
4896;DHT22;2463;49.948;8.472;2023-04-25T08:41:57;19.30;99.70
4896;DHT22;2463;49.948;8.472;2023-04-25T08:44:24;19.40;98.90
4896;DHT22;2463;49.948;8.472;2023-04-25T08:46:52;19.60;98.00
4896;DHT22;2463;49.948;8.472;2023-04-25T08:49:19;19.70;98.00
4896;DHT22;2463;49.948;8.472;2023-04-25T08:51:46;19.90;98.70
4896;DHT22;2463;49.948;8.472;2023-04-25T08:54:14;20.20;98.30
4896;DHT22;2463;49.948;8.472;2023-04-25T08:57:02;20.40;97.80
4896;DHT22;2463;49.948;8.472;2023-04-25T08:59:31;20.80;97.80
4896;DHT22;2463;49.948;8.472;2023-04-25T09:01:58;21.20;96.50
4896;DHT22;2463;49.948;8.472;2023-04-25T09:04:25;21.30;95.20
4896;DHT22;2463;49.948;8.472;2023-04-25T09:06:52;21.40;95.60
4896;DHT22;2463;49.948;8.472;2023-04-25T09:09:18;21.50;94.30
4896;DHT22;2463;49.948;8.472;2023-04-25T09:11:45;21.30;94.10
4896;DHT22;2463;49.948;8.472;2023-04-25T09:14:22;20.80;93.50
4896;DHT22;2463;49.948;8.472;2023-04-25T09:19:35;19.80;94.60
4896;DHT22;2463;49.948;8.472;2023-04-25T09:22:07;19.20;94.30
4896;DHT22;2463;49.948;8.472;2023-04-25T09:24:39;18.70;94.80
4896;DHT22;2463;49.948;8.472;2023-04-25T09:27:10;18.30;94.70
4896;DHT22;2463;49.948;8.472;2023-04-25T09:29:40;18.00;95.40
4896;DHT22;2463;49.948;8.472;2023-04-25T09:32:18;18.10;96.80
4896;DHT22;2463;49.948;8.472;2023-04-25T09:34:57;18.60;97.30
4896;DHT22;2463;49.948;8.472;2023-04-25T09:37:28;19.10;95.30
4896;DHT22;2463;49.948;8.472;2023-04-25T09:39:58;19.40;95.20
4896;DHT22;2463;49.948;8.472;2023-04-25T09:42:32;19.20;94.40
4896;DHT22;2463;49.948;8.472;2023-04-25T09:45:01;19.10;93.00
4896;DHT22;2463;49.948;8.472;2023-04-25T09:47:28;18.70;92.90
4896;DHT22;2463;49.948;8.472;2023-04-25T09:49:55;18.30;93.10
4896;DHT22;2463;49.948;8.472;2023-04-25T09:52:23;17.80;94.50
4896;DHT22;2463;49.948;8.472;2023-04-25T09:54:52;17.50;95.20
4896;DHT22;2463;49.948;8.472;2023-04-25T09:57:23;17.40;96.40
4896;DHT22;2463;49.948;8.472;2023-04-25T09:59:53;17.30;96.30
4896;DHT22;2463;49.948;8.472;2023-04-25T10:02:21;17.30;97.50
4896;DHT22;2463;49.948;8.472;2023-04-25T10:04:50;17.40;96.30
4896;DHT22;2463;49.948;8.472;2023-04-25T10:07:19;17.40;94.80
4896;DHT22;2463;49.948;8.472;2023-04-25T10:09:49;17.20;95.60
4896;DHT22;2463;49.948;8.472;2023-04-25T10:12:18;17.10;96.00
4896;DHT22;2463;49.948;8.472;2023-04-25T10:14:45;16.80;96.00
4896;DHT22;2463;49.948;8.472;2023-04-25T10:17:13;16.80;96.30
4896;DHT22;2463;49.948;8.472;2023-04-25T10:19:40;16.70;96.70
4896;DHT22;2463;49.948;8.472;2023-04-25T10:22:13;16.70;97.20
4896;DHT22;2463;49.948;8.472;2023-04-25T10:24:41;16.70;96.70
4896;DHT22;2463;49.948;8.472;2023-04-25T10:27:09;16.60;98.20
4896;DHT22;2463;49.948;8.472;2023-04-25T10:29:36;16.40;97.70
4896;DHT22;2463;49.948;8.472;2023-04-25T10:32:03;16.20;99.00
4896;DHT22;2463;49.948;8.472;2023-04-25T10:34:43;16.00;99.50
4896;DHT22;2463;49.948;8.472;2023-04-25T10:37:13;16.00;99.80
4896;DHT22;2463;49.948;8.472;2023-04-25T10:39:40;16.00;99.90
4896;DHT22;2463;49.948;8.472;2023-04-25T10:42:08;16.00;99.90
4896;DHT22;2463;49.948;8.472;2023-04-25T10:44:37;16.30;99.90
4896;DHT22;2463;49.948;8.472;2023-04-25T10:47:06;16.60;99.90
4896;DHT22;2463;49.948;8.472;2023-04-25T10:52:12;17.30;99.90
4896;DHT22;2463;49.948;8.472;2023-04-25T10:54:55;18.00;99.90
4896;DHT22;2463;49.948;8.472;2023-04-25T10:57:29;18.70;99.00
4896;DHT22;2463;49.948;8.472;2023-04-25T11:02:37;19.10;97.80
4896;DHT22;2463;49.948;8.472;2023-04-25T11:05:04;19.10;97.70
4896;DHT22;2463;49.948;8.472;2023-04-25T11:07:34;18.90;95.20
4896;DHT22;2463;49.948;8.472;2023-04-25T11:10:03;18.80;95.20
4896;DHT22;2463;49.948;8.472;2023-04-25T11:12:31;18.70;95.20
4896;DHT22;2463;49.948;8.472;2023-04-25T11:15:05;18.40;94.90
4896;DHT22;2463;49.948;8.472;2023-04-25T11:17:33;18.30;94.90
4896;DHT22;2463;49.948;8.472;2023-04-25T11:20:00;18.10;95.30
4896;DHT22;2463;49.948;8.472;2023-04-25T11:22:27;17.90;95.10
4896;DHT22;2463;49.948;8.472;2023-04-25T11:24:54;17.70;95.50
4896;DHT22;2463;49.948;8.472;2023-04-25T11:27:21;17.50;95.50
4896;DHT22;2463;49.948;8.472;2023-04-25T11:29:48;17.40;95.80
4896;DHT22;2463;49.948;8.472;2023-04-25T11:32:15;17.40;95.80
4896;DHT22;2463;49.948;8.472;2023-04-25T11:34:44;17.40;95.60
4896;DHT22;2463;49.948;8.472;2023-04-25T11:37:11;17.20;95.10
4896;DHT22;2463;49.948;8.472;2023-04-25T11:39:43;17.00;96.20
4896;DHT22;2463;49.948;8.472;2023-04-25T11:42:11;16.90;95.10
4896;DHT22;2463;49.948;8.472;2023-04-25T11:44:39;16.80;96.00
4896;DHT22;2463;49.948;8.472;2023-04-25T11:47:07;16.60;95.90
4896;DHT22;2463;49.948;8.472;2023-04-25T11:49:33;16.60;96.40
4896;DHT22;2463;49.948;8.472;2023-04-25T11:52:02;16.60;95.90
4896;DHT22;2463;49.948;8.472;2023-04-25T11:54:29;16.50;96.50
4896;DHT22;2463;49.948;8.472;2023-04-25T11:56:56;16.30;95.10
4896;DHT22;2463;49.948;8.472;2023-04-25T11:59:24;16.20;95.80
4896;DHT22;2463;49.948;8.472;2023-04-25T12:01:51;15.90;96.30
4896;DHT22;2463;49.948;8.472;2023-04-25T12:04:24;15.70;95.40
4896;DHT22;2463;49.948;8.472;2023-04-25T12:06:54;15.50;95.80
4896;DHT22;2463;49.948;8.472;2023-04-25T12:09:31;15.40;96.70
4896;DHT22;2463;49.948;8.472;2023-04-25T12:11:59;15.20;97.00
4896;DHT22;2463;49.948;8.472;2023-04-25T12:14:34;15.10;96.40
4896;DHT22;2463;49.948;8.472;2023-04-25T12:17:03;15.00;97.20
4896;DHT22;2463;49.948;8.472;2023-04-25T12:19:34;14.90;97.10
4896;DHT22;2463;49.948;8.472;2023-04-25T12:22:02;14.80;97.60
4896;DHT22;2463;49.948;8.472;2023-04-25T12:24:33;14.90;97.40
4896;DHT22;2463;49.948;8.472;2023-04-25T12:27:05;14.90;96.80
4896;DHT22;2463;49.948;8.472;2023-04-25T12:29:33;14.80;97.00
4896;DHT22;2463;49.948;8.472;2023-04-25T12:32:14;14.80;96.80
4896;DHT22;2463;49.948;8.472;2023-04-25T12:34:41;15.00;97.00
4896;DHT22;2463;49.948;8.472;2023-04-25T12:37:08;15.20;96.50
4896;DHT22;2463;49.948;8.472;2023-04-25T12:39:35;15.30;96.30
4896;DHT22;2463;49.948;8.472;2023-04-25T12:42:02;15.70;97.10
4896;DHT22;2463;49.948;8.472;2023-04-25T12:44:32;16.10;96.40
4896;DHT22;2463;49.948;8.472;2023-04-25T12:46:59;16.50;96.60
4896;DHT22;2463;49.948;8.472;2023-04-25T12:49:26;16.70;96.30
4896;DHT22;2463;49.948;8.472;2023-04-25T12:51:53;16.70;95.10
4896;DHT22;2463;49.948;8.472;2023-04-25T12:54:19;16.80;95.50
4896;DHT22;2463;49.948;8.472;2023-04-25T12:56:46;16.80;94.90
4896;DHT22;2463;49.948;8.472;2023-04-25T12:59:13;16.90;95.50
4896;DHT22;2463;49.948;8.472;2023-04-25T13:01:40;17.00;94.80
4896;DHT22;2463;49.948;8.472;2023-04-25T13:04:07;17.00;93.90
4896;DHT22;2463;49.948;8.472;2023-04-25T13:06:34;17.00;93.10
4896;DHT22;2463;49.948;8.472;2023-04-25T13:09:00;17.10;94.20
4896;DHT22;2463;49.948;8.472;2023-04-25T13:11:27;17.20;94.80
4896;DHT22;2463;49.948;8.472;2023-04-25T13:14:00;17.40;93.60
4896;DHT22;2463;49.948;8.472;2023-04-25T13:16:26;17.40;93.30
4896;DHT22;2463;49.948;8.472;2023-04-25T13:18:53;17.10;92.80
4896;DHT22;2463;49.948;8.472;2023-04-25T13:21:22;16.60;92.00
4896;DHT22;2463;49.948;8.472;2023-04-25T13:23:49;16.30;92.60
4896;DHT22;2463;49.948;8.472;2023-04-25T13:26:16;16.10;92.60
4896;DHT22;2463;49.948;8.472;2023-04-25T13:28:42;15.80;92.60
4896;DHT22;2463;49.948;8.472;2023-04-25T13:31:10;15.70;93.10
4896;DHT22;2463;49.948;8.472;2023-04-25T13:33:37;15.70;94.30
4896;DHT22;2463;49.948;8.472;2023-04-25T13:36:04;15.60;93.70
4896;DHT22;2463;49.948;8.472;2023-04-25T13:38:30;15.50;93.40
4896;DHT22;2463;49.948;8.472;2023-04-25T13:40:57;15.50;94.20
4896;DHT22;2463;49.948;8.472;2023-04-25T13:43:24;15.70;94.50
4896;DHT22;2463;49.948;8.472;2023-04-25T13:45:50;15.80;94.10
4896;DHT22;2463;49.948;8.472;2023-04-25T13:48:18;15.90;94.40
4896;DHT22;2463;49.948;8.472;2023-04-25T13:50:45;16.10;94.00
4896;DHT22;2463;49.948;8.472;2023-04-25T13:53:12;16.20;94.30
4896;DHT22;2463;49.948;8.472;2023-04-25T13:55:39;16.30;94.70
4896;DHT22;2463;49.948;8.472;2023-04-25T13:58:06;16.50;94.70
4896;DHT22;2463;49.948;8.472;2023-04-25T14:00:38;16.60;93.70
4896;DHT22;2463;49.948;8.472;2023-04-25T14:03:06;16.50;93.00
4896;DHT22;2463;49.948;8.472;2023-04-25T14:05:36;16.50;93.20
4896;DHT22;2463;49.948;8.472;2023-04-25T14:08:09;16.30;92.60
4896;DHT22;2463;49.948;8.472;2023-04-25T14:10:36;16.20;92.90
4896;DHT22;2463;49.948;8.472;2023-04-25T14:13:03;16.10;93.10
4896;DHT22;2463;49.948;8.472;2023-04-25T14:15:34;16.00;93.50
4896;DHT22;2463;49.948;8.472;2023-04-25T14:18:01;15.90;93.90
4896;DHT22;2463;49.948;8.472;2023-04-25T14:20:29;15.80;93.10
4896;DHT22;2463;49.948;8.472;2023-04-25T14:22:56;15.70;93.40
4896;DHT22;2463;49.948;8.472;2023-04-25T14:25:25;15.60;93.10
4896;DHT22;2463;49.948;8.472;2023-04-25T14:27:52;15.60;93.50
4896;DHT22;2463;49.948;8.472;2023-04-25T14:30:19;15.50;93.00
4896;DHT22;2463;49.948;8.472;2023-04-25T14:32:48;15.40;93.00
4896;DHT22;2463;49.948;8.472;2023-04-25T14:35:16;15.40;93.30
4896;DHT22;2463;49.948;8.472;2023-04-25T14:37:42;15.40;92.50
4896;DHT22;2463;49.948;8.472;2023-04-25T14:40:10;15.40;93.80
4896;DHT22;2463;49.948;8.472;2023-04-25T14:42:37;15.40;93.50
4896;DHT22;2463;49.948;8.472;2023-04-25T14:45:05;15.30;93.30
4896;DHT22;2463;49.948;8.472;2023-04-25T14:47:38;15.20;92.40
4896;DHT22;2463;49.948;8.472;2023-04-25T14:50:06;15.10;92.00
4896;DHT22;2463;49.948;8.472;2023-04-25T14:52:33;15.10;92.20
4896;DHT22;2463;49.948;8.472;2023-04-25T14:55:00;15.20;92.30
4896;DHT22;2463;49.948;8.472;2023-04-25T14:57:32;15.30;92.40
4896;DHT22;2463;49.948;8.472;2023-04-25T14:59:59;15.70;93.70
4896;DHT22;2463;49.948;8.472;2023-04-25T15:02:26;15.90;91.60
4896;DHT22;2463;49.948;8.472;2023-04-25T15:04:53;16.00;91.50
4896;DHT22;2463;49.948;8.472;2023-04-25T15:07:21;16.00;92.70
4896;DHT22;2463;49.948;8.472;2023-04-25T15:09:48;15.90;90.20
4896;DHT22;2463;49.948;8.472;2023-04-25T15:12:15;15.80;90.50
4896;DHT22;2463;49.948;8.472;2023-04-25T15:14:42;15.70;90.60
4896;DHT22;2463;49.948;8.472;2023-04-25T15:17:08;15.60;90.10
4896;DHT22;2463;49.948;8.472;2023-04-25T15:19:35;15.50;90.80
4896;DHT22;2463;49.948;8.472;2023-04-25T15:22:02;15.30;90.90
4896;DHT22;2463;49.948;8.472;2023-04-25T15:24:29;15.20;91.50
4896;DHT22;2463;49.948;8.472;2023-04-25T15:26:56;14.90;91.60
4896;DHT22;2463;49.948;8.472;2023-04-25T15:29:23;14.80;91.90
4896;DHT22;2463;49.948;8.472;2023-04-25T15:31:50;14.70;92.60
4896;DHT22;2463;49.948;8.472;2023-04-25T15:34:16;14.50;92.50
4896;DHT22;2463;49.948;8.472;2023-04-25T15:36:43;14.50;92.50
4896;DHT22;2463;49.948;8.472;2023-04-25T15:39:10;14.40;92.00
4896;DHT22;2463;49.948;8.472;2023-04-25T15:41:36;14.50;92.40
4896;DHT22;2463;49.948;8.472;2023-04-25T15:44:03;14.60;92.90
4896;DHT22;2463;49.948;8.472;2023-04-25T15:46:30;14.70;93.90
4896;DHT22;2463;49.948;8.472;2023-04-25T15:48:57;14.70;92.30
4896;DHT22;2463;49.948;8.472;2023-04-25T15:51:24;14.80;93.10
4896;DHT22;2463;49.948;8.472;2023-04-25T15:53:50;14.90;93.10
4896;DHT22;2463;49.948;8.472;2023-04-25T15:56:18;15.00;93.60
4896;DHT22;2463;49.948;8.472;2023-04-25T15:58:45;15.00;93.00
4896;DHT22;2463;49.948;8.472;2023-04-25T16:01:11;15.00;92.40
4896;DHT22;2463;49.948;8.472;2023-04-25T16:03:39;15.10;92.40
4896;DHT22;2463;49.948;8.472;2023-04-25T16:06:06;15.20;91.50
4896;DHT22;2463;49.948;8.472;2023-04-25T16:08:33;15.30;93.00
4896;DHT22;2463;49.948;8.472;2023-04-25T16:11:01;15.30;91.30
4896;DHT22;2463;49.948;8.472;2023-04-25T16:13:28;15.30;90.60
4896;DHT22;2463;49.948;8.472;2023-04-25T16:15:55;15.10;89.80
4896;DHT22;2463;49.948;8.472;2023-04-25T16:18:23;15.00;90.60